sensor_id;sensor_type;location;lat;lon;timestamp;pressure;altitude;pressure_sealevel;temperature;humidity
47726;BME280;33483;48.294;16.388;2023-04-25T00:01:47;98830.13;;;9.64;100.00
47726;BME280;33483;48.294;16.388;2023-04-25T00:04:14;98839.91;;;9.65;100.00
47726;BME280;33483;48.294;16.388;2023-04-25T00:06:42;98832.34;;;9.65;100.00
47726;BME280;33483;48.294;16.388;2023-04-25T00:09:10;98832.34;;;9.65;100.00
47726;BME280;33483;48.294;16.388;2023-04-25T00:11:40;98833.72;;;9.72;100.00
47726;BME280;33483;48.294;16.388;2023-04-25T00:14:07;98834.78;;;9.69;100.00
47726;BME280;33483;48.294;16.388;2023-04-25T00:16:34;98830.13;;;9.64;100.00
47726;BME280;33483;48.294;16.388;2023-04-25T00:19:02;98836.06;;;9.68;100.00
47726;BME280;33483;48.294;16.388;2023-04-25T00:21:30;98827.56;;;9.66;100.00
47726;BME280;33483;48.294;16.388;2023-04-25T00:23:58;98832.34;;;9.65;100.00
47726;BME280;33483;48.294;16.388;2023-04-25T00:26:28;98825.53;;;9.66;100.00
47726;BME280;33483;48.294;16.388;2023-04-25T00:28:55;98821.09;;;9.63;100.00
47726;BME280;33483;48.294;16.388;2023-04-25T00:31:22;98826.06;;;9.65;100.00
47726;BME280;33483;48.294;16.388;2023-04-25T00:33:49;98817.69;;;9.57;100.00
47726;BME280;33483;48.294;16.388;2023-04-25T00:36:17;98821.97;;;9.58;100.00
47726;BME280;33483;48.294;16.388;2023-04-25T00:38:47;98825.06;;;9.55;100.00
47726;BME280;33483;48.294;16.388;2023-04-25T00:41:17;98818.03;;;9.54;100.00
47726;BME280;33483;48.294;16.388;2023-04-25T00:43:45;98812.31;;;9.52;100.00
47726;BME280;33483;48.294;16.388;2023-04-25T00:46:13;98816.97;;;9.57;100.00
47726;BME280;33483;48.294;16.388;2023-04-25T00:48:40;98811.44;;;9.57;100.00
47726;BME280;33483;48.294;16.388;2023-04-25T00:51:09;98810.91;;;9.58;100.00
47726;BME280;33483;48.294;16.388;2023-04-25T00:53:40;98812.91;;;9.58;100.00
47726;BME280;33483;48.294;16.388;2023-04-25T00:56:07;98812.91;;;9.58;100.00
47726;BME280;33483;48.294;16.388;2023-04-25T00:58:34;98809.22;;;9.55;100.00
47726;BME280;33483;48.294;16.388;2023-04-25T01:01:01;98813.78;;;9.53;100.00
47726;BME280;33483;48.294;16.388;2023-04-25T01:03:30;98812.81;;;9.50;100.00
47726;BME280;33483;48.294;16.388;2023-04-25T01:05:59;98819.00;;;9.56;100.00
47726;BME280;33483;48.294;16.388;2023-04-25T01:08:27;98826.75;;;9.58;100.00
47726;BME280;33483;48.294;16.388;2023-04-25T01:10:54;98816.75;;;9.55;100.00
47726;BME280;33483;48.294;16.388;2023-04-25T01:13:21;98821.41;;;9.60;100.00
47726;BME280;33483;48.294;16.388;2023-04-25T01:15:49;98814.41;;;9.59;100.00
47726;BME280;33483;48.294;16.388;2023-04-25T01:18:16;98815.47;;;9.56;100.00
47726;BME280;33483;48.294;16.388;2023-04-25T01:20:44;98813.44;;;9.56;100.00
47726;BME280;33483;48.294;16.388;2023-04-25T01:23:12;98816.22;;;9.56;100.00
47726;BME280;33483;48.294;16.388;2023-04-25T01:25:40;98815.69;;;9.58;100.00
47726;BME280;33483;48.294;16.388;2023-04-25T01:28:10;98813.78;;;9.53;100.00
47726;BME280;33483;48.294;16.388;2023-04-25T01:30:37;98813.03;;;9.52;100.00
47726;BME280;33483;48.294;16.388;2023-04-25T01:33:05;98812.31;;;9.52;100.00
47726;BME280;33483;48.294;16.388;2023-04-25T01:35:34;98807.63;;;9.47;100.00
47726;BME280;33483;48.294;16.388;2023-04-25T01:38:01;98812.09;;;9.50;100.00
47726;BME280;33483;48.294;16.388;2023-04-25T01:40:28;98812.66;;;9.48;100.00
47726;BME280;33483;48.294;16.388;2023-04-25T01:42:56;98805.94;;;9.44;100.00
47726;BME280;33483;48.294;16.388;2023-04-25T01:45:23;98816.13;;;9.49;100.00
47726;BME280;33483;48.294;16.388;2023-04-25T01:47:53;98812.81;;;9.50;100.00
47726;BME280;33483;48.294;16.388;2023-04-25T01:50:20;98803.94;;;9.44;100.00
47726;BME280;33483;48.294;16.388;2023-04-25T01:52:48;98802.63;;;9.45;100.00
47726;BME280;33483;48.294;16.388;2023-04-25T01:55:16;98806.47;;;9.42;100.00
47726;BME280;33483;48.294;16.388;2023-04-25T01:57:58;98812.34;;;9.39;100.00
47726;BME280;33483;48.294;16.388;2023-04-25T02:00:44;98810.88;;;9.38;100.00
47726;BME280;33483;48.294;16.388;2023-04-25T02:03:12;98823.19;;;9.37;100.00
47726;BME280;33483;48.294;16.388;2023-04-25T02:05:39;98811.41;;;9.36;100.00
47726;BME280;33483;48.294;16.388;2023-04-25T02:08:10;98813.97;;;9.34;100.00
47726;BME280;33483;48.294;16.388;2023-04-25T02:10:37;98809.16;;;9.35;100.00
47726;BME280;33483;48.294;16.388;2023-04-25T02:13:23;98806.72;;;9.31;100.00
47726;BME280;33483;48.294;16.388;2023-04-25T02:16:20;98808.56;;;9.29;100.00
47726;BME280;33483;48.294;16.388;2023-04-25T02:18:47;98812.59;;;9.28;100.00
47726;BME280;33483;48.294;16.388;2023-04-25T02:21:14;98806.88;;;9.26;100.00
47726;BME280;33483;48.294;16.388;2023-04-25T02:23:42;98808.66;;;9.23;100.00
47726;BME280;33483;48.294;16.388;2023-04-25T02:26:12;98806.56;;;9.16;100.00
47726;BME280;33483;48.294;16.388;2023-04-25T02:28:41;98805.81;;;9.16;100.00
47726;BME280;33483;48.294;16.388;2023-04-25T02:31:08;98803.91;;;9.10;100.00
47726;BME280;33483;48.294;16.388;2023-04-25T02:33:35;98799.47;;;9.07;100.00
47726;BME280;33483;48.294;16.388;2023-04-25T02:36:04;98803.31;;;9.04;100.00
47726;BME280;33483;48.294;16.388;2023-04-25T02:38:31;98801.06;;;9.03;100.00
47726;BME280;33483;48.294;16.388;2023-04-25T02:40:59;98798.81;;;9.01;100.00
47726;BME280;33483;48.294;16.388;2023-04-25T02:43:26;98802.25;;;8.94;100.00
47726;BME280;33483;48.294;16.388;2023-04-25T02:45:53;98798.00;;;8.93;100.00
47726;BME280;33483;48.294;16.388;2023-04-25T02:48:20;98795.25;;;8.93;100.00
47726;BME280;33483;48.294;16.388;2023-04-25T02:50:48;98795.88;;;8.86;100.00
47726;BME280;33483;48.294;16.388;2023-04-25T02:53:15;98795.13;;;8.86;100.00
47726;BME280;33483;48.294;16.388;2023-04-25T02:55:47;98801.41;;;8.86;100.00
47726;BME280;33483;48.294;16.388;2023-04-25T02:58:14;98798.44;;;8.84;100.00
47726;BME280;33483;48.294;16.388;2023-04-25T03:00:48;98786.56;;;8.76;100.00
47726;BME280;33483;48.294;16.388;2023-04-25T03:03:16;98795.25;;;8.80;100.00
47726;BME280;33483;48.294;16.388;2023-04-25T03:05:45;98793.03;;;8.79;100.00
47726;BME280;33483;48.294;16.388;2023-04-25T03:08:15;98786.56;;;8.76;100.00
47726;BME280;33483;48.294;16.388;2023-04-25T03:10:42;98793.16;;;8.73;100.00
47726;BME280;33483;48.294;16.388;2023-04-25T03:13:10;98788.28;;;8.66;100.00
47726;BME280;33483;48.294;16.388;2023-04-25T03:15:40;98789.09;;;8.61;100.00
47726;BME280;33483;48.294;16.388;2023-04-25T03:18:07;98788.69;;;8.57;100.00
47726;BME280;33483;48.294;16.388;2023-04-25T03:20:34;98794.13;;;8.63;100.00
47726;BME280;33483;48.294;16.388;2023-04-25T03:23:06;98798.56;;;8.66;100.00
47726;BME280;33483;48.294;16.388;2023-04-25T03:25:33;98792.06;;;8.63;100.00
47726;BME280;33483;48.294;16.388;2023-04-25T03:28:00;98795.91;;;8.60;100.00
47726;BME280;33483;48.294;16.388;2023-04-25T03:30:27;98789.63;;;8.60;100.00
47726;BME280;33483;48.294;16.388;2023-04-25T03:32:57;98795.25;;;8.54;100.00
47726;BME280;33483;48.294;16.388;2023-04-25T03:35:24;98798.03;;;8.54;100.00
47726;BME280;33483;48.294;16.388;2023-04-25T03:37:52;98801.75;;;8.57;100.00
47726;BME280;33483;48.294;16.388;2023-04-25T03:40:24;98803.75;;;8.56;100.00
47726;BME280;33483;48.294;16.388;2023-04-25T03:43:15;98810.34;;;8.53;100.00
47726;BME280;33483;48.294;16.388;2023-04-25T03:45:50;98807.16;;;8.49;100.00
47726;BME280;33483;48.294;16.388;2023-04-25T03:48:20;98810.47;;;8.48;100.00
47726;BME280;33483;48.294;16.388;2023-04-25T03:50:49;98808.66;;;8.50;100.00
47726;BME280;33483;48.294;16.388;2023-04-25T03:53:16;98812.06;;;8.43;100.00
47726;BME280;33483;48.294;16.388;2023-04-25T03:56:04;98808.56;;;8.43;100.00
47726;BME280;33483;48.294;16.388;2023-04-25T03:58:36;98808.13;;;8.39;100.00
47726;BME280;33483;48.294;16.388;2023-04-25T04:01:03;98807.38;;;8.38;100.00
47726;BME280;33483;48.294;16.388;2023-04-25T04:03:37;98809.72;;;8.34;100.00
47726;BME280;33483;48.294;16.388;2023-04-25T04:06:07;98819.06;;;8.31;100.00
47726;BME280;33483;48.294;16.388;2023-04-25T04:08:39;98821.38;;;8.27;100.00
47726;BME280;33483;48.294;16.388;2023-04-25T04:11:08;98822.84;;;8.28;100.00
47726;BME280;33483;48.294;16.388;2023-04-25T04:13:36;98821.69;;;8.24;100.00
47726;BME280;33483;48.294;16.388;2023-04-25T04:16:03;98823.69;;;8.23;100.00
47726;BME280;33483;48.294;16.388;2023-04-25T04:18:31;98838.00;;;8.22;100.00
47726;BME280;33483;48.294;16.388;2023-04-25T04:21:00;98831.31;;;8.17;100.00
47726;BME280;33483;48.294;16.388;2023-04-25T04:23:31;98838.00;;;8.22;100.00
47726;BME280;33483;48.294;16.388;2023-04-25T04:25:58;98835.56;;;8.18;100.00
47726;BME280;33483;48.294;16.388;2023-04-25T04:28:40;98831.75;;;8.21;100.00
47726;BME280;33483;48.294;16.388;2023-04-25T04:31:16;98832.06;;;8.18;100.00
47726;BME280;33483;48.294;16.388;2023-04-25T04:33:49;98840.13;;;8.16;100.00
47726;BME280;33483;48.294;16.388;2023-04-25T04:36:19;98834.50;;;8.21;100.00
47726;BME280;33483;48.294;16.388;2023-04-25T04:38:50;98833.25;;;8.22;100.00
47726;BME280;33483;48.294;16.388;2023-04-25T04:41:31;98846.81;;;8.20;100.00
47726;BME280;33483;48.294;16.388;2023-04-25T04:44:25;98835.03;;;8.20;100.00
47726;BME280;33483;48.294;16.388;2023-04-25T04:47:13;98837.56;;;8.18;100.00
47726;BME280;33483;48.294;16.388;2023-04-25T04:50:07;98842.38;;;8.17;100.00
47726;BME280;33483;48.294;16.388;2023-04-25T04:52:57;98836.84;;;8.17;100.00
47726;BME280;33483;48.294;16.388;2023-04-25T04:55:44;98844.06;;;8.20;100.00
47726;BME280;33483;48.294;16.388;2023-04-25T04:58:41;98839.84;;;8.19;100.00
47726;BME280;33483;48.294;16.388;2023-04-25T05:01:21;98846.28;;;8.22;100.00
47726;BME280;33483;48.294;16.388;2023-04-25T05:04:09;98836.53;;;8.21;100.00
47726;BME280;33483;48.294;16.388;2023-04-25T05:06:43;98840.88;;;8.16;100.00
47726;BME280;33483;48.294;16.388;2023-04-25T05:09:39;98842.38;;;8.17;100.00
47726;BME280;33483;48.294;16.388;2023-04-25T05:12:30;98841.94;;;8.13;100.00
47726;BME280;33483;48.294;16.388;2023-04-25T05:15:11;98833.44;;;8.11;100.00
47726;BME280;33483;48.294;16.388;2023-04-25T05:17:59;98841.28;;;8.07;100.00
47726;BME280;33483;48.294;16.388;2023-04-25T05:20:45;98836.81;;;8.04;100.00
47726;BME280;33483;48.294;16.388;2023-04-25T05:23:24;98840.31;;;8.05;100.00
47726;BME280;33483;48.294;16.388;2023-04-25T05:25:56;98841.59;;;8.04;100.00
47726;BME280;33483;48.294;16.388;2023-04-25T05:28:50;98843.38;;;8.01;100.00
47726;BME280;33483;48.294;16.388;2023-04-25T05:31:37;98847.63;;;8.02;100.00
47726;BME280;33483;48.294;16.388;2023-04-25T05:34:11;98844.25;;;8.09;100.00
47726;BME280;33483;48.294;16.388;2023-04-25T05:36:47;98848.94;;;8.14;100.00
47726;BME280;33483;48.294;16.388;2023-04-25T05:39:21;98843.84;;;8.18;100.00
47726;BME280;33483;48.294;16.388;2023-04-25T05:42:05;98845.63;;;8.60;100.00
47726;BME280;33483;48.294;16.388;2023-04-25T05:45:05;98843.69;;;8.94;100.00
47726;BME280;33483;48.294;16.388;2023-04-25T05:47:48;98837.50;;;9.01;100.00
47726;BME280;33483;48.294;16.388;2023-04-25T05:50:24;98838.78;;;9.13;100.00
47726;BME280;33483;48.294;16.388;2023-04-25T05:53:03;98833.91;;;9.74;100.00
47726;BME280;33483;48.294;16.388;2023-04-25T05:55:39;98850.16;;;10.60;100.00
47726;BME280;33483;48.294;16.388;2023-04-25T05:58:20;98852.38;;;10.61;100.00
47726;BME280;33483;48.294;16.388;2023-04-25T06:00:47;98856.28;;;10.66;100.00
47726;BME280;33483;48.294;16.388;2023-04-25T06:03:14;98853.91;;;10.98;100.00
47726;BME280;33483;48.294;16.388;2023-04-25T06:05:46;98861.72;;;11.14;100.00
47726;BME280;33483;48.294;16.388;2023-04-25T06:08:16;98857.94;;;10.97;100.00
47726;BME280;33483;48.294;16.388;2023-04-25T06:10:43;98855.25;;;11.12;100.00
47726;BME280;33483;48.294;16.388;2023-04-25T06:13:10;98851.25;;;12.01;100.00
47726;BME280;33483;48.294;16.388;2023-04-25T06:15:38;98852.00;;;12.02;100.00
47726;BME280;33483;48.294;16.388;2023-04-25T06:18:06;98845.72;;;12.31;100.00
47726;BME280;33483;48.294;16.388;2023-04-25T06:20:33;98845.38;;;12.42;100.00
47726;BME280;33483;48.294;16.388;2023-04-25T06:23:03;98847.03;;;12.15;100.00
47726;BME280;33483;48.294;16.388;2023-04-25T06:25:50;98837.59;;;12.11;100.00
47726;BME280;33483;48.294;16.388;2023-04-25T06:28:18;98842.59;;;12.20;100.00
47726;BME280;33483;48.294;16.388;2023-04-25T06:30:46;98849.22;;;11.94;100.00
47726;BME280;33483;48.294;16.388;2023-04-25T06:33:17;98843.50;;;12.37;100.00
47726;BME280;33483;48.294;16.388;2023-04-25T06:35:45;98834.06;;;12.40;97.92
47726;BME280;33483;48.294;16.388;2023-04-25T06:38:16;98842.56;;;12.58;93.70
47726;BME280;33483;48.294;16.388;2023-04-25T06:40:47;98845.81;;;13.09;90.59
47726;BME280;33483;48.294;16.388;2023-04-25T06:43:15;98854.22;;;14.30;81.90
47726;BME280;33483;48.294;16.388;2023-04-25T06:46:06;98847.66;;;16.25;69.80
47726;BME280;33483;48.294;16.388;2023-04-25T06:48:40;98851.19;;;17.47;61.87
47726;BME280;33483;48.294;16.388;2023-04-25T06:51:07;98856.03;;;18.16;54.39
47726;BME280;33483;48.294;16.388;2023-04-25T06:53:36;98853.44;;;19.44;48.13
47726;BME280;33483;48.294;16.388;2023-04-25T06:56:06;98855.53;;;19.44;46.15
47726;BME280;33483;48.294;16.388;2023-04-25T06:58:56;98853.38;;;20.21;44.16
47726;BME280;33483;48.294;16.388;2023-04-25T07:01:28;98849.91;;;20.92;43.14
47726;BME280;33483;48.294;16.388;2023-04-25T07:03:58;98855.09;;;20.38;41.40
47726;BME280;33483;48.294;16.388;2023-04-25T07:06:28;98855.63;;;20.94;40.84
47726;BME280;33483;48.294;16.388;2023-04-25T07:08:58;98849.41;;;21.57;39.43
47726;BME280;33483;48.294;16.388;2023-04-25T07:11:25;98851.22;;;21.64;39.71
47726;BME280;33483;48.294;16.388;2023-04-25T07:13:52;98847.56;;;22.00;38.29
47726;BME280;33483;48.294;16.388;2023-04-25T07:16:20;98849.06;;;21.76;37.36
47726;BME280;33483;48.294;16.388;2023-04-25T07:18:46;98844.28;;;22.31;37.27
47726;BME280;33483;48.294;16.388;2023-04-25T07:21:15;98850.06;;;22.47;35.37
47726;BME280;33483;48.294;16.388;2023-04-25T07:23:44;98841.06;;;22.64;37.16
47726;BME280;33483;48.294;16.388;2023-04-25T07:26:15;98850.31;;;23.20;34.40
47726;BME280;33483;48.294;16.388;2023-04-25T07:29:02;98848.09;;;22.63;35.50
47726;BME280;33483;48.294;16.388;2023-04-25T07:31:29;98848.44;;;22.03;36.33
47726;BME280;33483;48.294;16.388;2023-04-25T07:33:57;98842.16;;;22.18;35.83
47726;BME280;33483;48.294;16.388;2023-04-25T07:36:28;98841.38;;;22.83;35.62
47726;BME280;33483;48.294;16.388;2023-04-25T07:38:57;98839.50;;;22.61;36.23
47726;BME280;33483;48.294;16.388;2023-04-25T07:41:24;98835.13;;;22.71;36.52
47726;BME280;33483;48.294;16.388;2023-04-25T07:43:51;98832.91;;;22.56;35.58
47726;BME280;33483;48.294;16.388;2023-04-25T07:46:20;98832.59;;;22.91;35.05
47726;BME280;33483;48.294;16.388;2023-04-25T07:48:47;98831.56;;;22.57;34.92
47726;BME280;33483;48.294;16.388;2023-04-25T07:51:15;98827.34;;;22.45;37.05
47726;BME280;33483;48.294;16.388;2023-04-25T07:53:42;98826.84;;;23.18;35.34
47726;BME280;33483;48.294;16.388;2023-04-25T07:56:13;98838.38;;;23.51;33.44
47726;BME280;33483;48.294;16.388;2023-04-25T07:58:43;98832.69;;;23.35;33.88
47726;BME280;33483;48.294;16.388;2023-04-25T08:01:13;98832.19;;;22.56;34.72
47726;BME280;33483;48.294;16.388;2023-04-25T08:03:51;98826.06;;;23.02;34.50
47726;BME280;33483;48.294;16.388;2023-04-25T08:06:23;98823.09;;;22.57;35.24
47726;BME280;33483;48.294;16.388;2023-04-25T08:09:15;98823.50;;;23.21;35.65
47726;BME280;33483;48.294;16.388;2023-04-25T08:11:43;98812.06;;;22.09;36.40
47726;BME280;33483;48.294;16.388;2023-04-25T08:25:10;98802.50;;;23.40;34.08
47726;BME280;33483;48.294;16.388;2023-04-25T08:27:39;98805.13;;;24.27;33.69
47726;BME280;33483;48.294;16.388;2023-04-25T08:30:08;98812.75;;;24.72;33.08
47726;BME280;33483;48.294;16.388;2023-04-25T08:32:38;98811.38;;;24.73;31.93
47726;BME280;33483;48.294;16.388;2023-04-25T08:35:27;98799.88;;;24.20;32.92
47726;BME280;33483;48.294;16.388;2023-04-25T08:37:55;98796.81;;;24.31;32.07
47726;BME280;33483;48.294;16.388;2023-04-25T08:40:23;98795.44;;;23.86;33.00
47726;BME280;33483;48.294;16.388;2023-04-25T08:43:00;98800.09;;;23.79;32.75
47726;BME280;33483;48.294;16.388;2023-04-25T08:45:31;98796.22;;;22.99;33.74
47726;BME280;33483;48.294;16.388;2023-04-25T08:47:59;98789.69;;;23.84;32.62
47726;BME280;33483;48.294;16.388;2023-04-25T08:50:27;98781.66;;;21.30;36.81
47726;BME280;33483;48.294;16.388;2023-04-25T08:52:57;98784.13;;;19.04;41.33
47726;BME280;33483;48.294;16.388;2023-04-25T08:55:28;98788.81;;;17.56;44.07
47726;BME280;33483;48.294;16.388;2023-04-25T08:57:59;98780.63;;;18.83;42.45
47726;BME280;33483;48.294;16.388;2023-04-25T09:00:26;98783.84;;;19.77;40.89
47726;BME280;33483;48.294;16.388;2023-04-25T09:02:56;98777.94;;;21.78;39.30
47726;BME280;33483;48.294;16.388;2023-04-25T09:05:28;98790.94;;;21.96;36.50
47726;BME280;33483;48.294;16.388;2023-04-25T09:07:56;98788.84;;;22.51;35.58
47726;BME280;33483;48.294;16.388;2023-04-25T09:10:23;98795.25;;;22.52;35.08
47726;BME280;33483;48.294;16.388;2023-04-25T09:13:06;98791.06;;;22.25;35.86
47726;BME280;33483;48.294;16.388;2023-04-25T09:15:57;98780.28;;;23.05;35.44
47726;BME280;33483;48.294;16.388;2023-04-25T09:18:45;98785.22;;;22.49;34.83
47726;BME280;33483;48.294;16.388;2023-04-25T09:21:15;98773.59;;;19.93;39.85
47726;BME280;33483;48.294;16.388;2023-04-25T09:23:47;98773.16;;;18.55;42.27
47726;BME280;33483;48.294;16.388;2023-04-25T09:26:17;98778.75;;;20.32;39.39
47726;BME280;33483;48.294;16.388;2023-04-25T09:28:45;98773.97;;;20.82;38.17
47726;BME280;33483;48.294;16.388;2023-04-25T09:31:23;98779.38;;;21.65;36.80
47726;BME280;33483;48.294;16.388;2023-04-25T09:34:01;98779.44;;;19.63;39.99
47726;BME280;33483;48.294;16.388;2023-04-25T09:36:36;98777.44;;;19.42;41.16
47726;BME280;33483;48.294;16.388;2023-04-25T09:39:30;98778.50;;;20.04;39.02
47726;BME280;33483;48.294;16.388;2023-04-25T09:42:08;98763.53;;;18.27;42.17
47726;BME280;33483;48.294;16.388;2023-04-25T09:44:36;98768.66;;;17.29;46.14
47726;BME280;33483;48.294;16.388;2023-04-25T09:47:10;98764.19;;;16.31;48.13
47726;BME280;33483;48.294;16.388;2023-04-25T09:49:41;98771.44;;;15.35;51.62
47726;BME280;33483;48.294;16.388;2023-04-25T09:52:15;98776.47;;;14.58;56.88
47726;BME280;33483;48.294;16.388;2023-04-25T09:54:56;98793.63;;;13.24;60.11
47726;BME280;33483;48.294;16.388;2023-04-25T09:57:29;98807.00;;;12.48;66.79
47726;BME280;33483;48.294;16.388;2023-04-25T09:59:57;98800.75;;;12.03;83.60
47726;BME280;33483;48.294;16.388;2023-04-25T10:02:39;98796.75;;;11.46;100.00
47726;BME280;33483;48.294;16.388;2023-04-25T10:05:15;98793.31;;;11.09;100.00
47726;BME280;33483;48.294;16.388;2023-04-25T10:07:45;98781.72;;;10.83;100.00
47726;BME280;33483;48.294;16.388;2023-04-25T10:10:15;98766.81;;;10.93;100.00
47726;BME280;33483;48.294;16.388;2023-04-25T10:12:43;98759.84;;;11.07;100.00
47726;BME280;33483;48.294;16.388;2023-04-25T10:15:11;98758.81;;;11.33;100.00
47726;BME280;33483;48.294;16.388;2023-04-25T10:17:39;98765.91;;;11.72;100.00
47726;BME280;33483;48.294;16.388;2023-04-25T10:20:07;98770.53;;;12.07;100.00
47726;BME280;33483;48.294;16.388;2023-04-25T10:22:38;98759.22;;;12.42;100.00
47726;BME280;33483;48.294;16.388;2023-04-25T10:25:06;98750.28;;;13.71;100.00
47726;BME280;33483;48.294;16.388;2023-04-25T10:27:35;98757.91;;;15.85;100.00
47726;BME280;33483;48.294;16.388;2023-04-25T10:30:15;98755.25;;;17.18;84.74
47726;BME280;33483;48.294;16.388;2023-04-25T10:32:43;98753.00;;;17.85;67.40
47726;BME280;33483;48.294;16.388;2023-04-25T10:35:13;98754.94;;;18.35;58.73
47726;BME280;33483;48.294;16.388;2023-04-25T10:40:29;98763.44;;;19.65;53.42
47726;BME280;33483;48.294;16.388;2023-04-25T10:43:32;98757.69;;;19.63;52.45
47726;BME280;33483;48.294;16.388;2023-04-25T10:45:53;98756.38;;;19.99;47.20
47726;BME280;33483;48.294;16.388;2023-04-25T10:48:26;98760.13;;;20.38;49.12
47726;BME280;33483;48.294;16.388;2023-04-25T10:51:15;98752.56;;;20.17;47.09
47726;BME280;33483;48.294;16.388;2023-04-25T10:56:25;98748.84;;;19.34;46.81
47726;BME280;33483;48.294;16.388;2023-04-25T10:59:02;98731.03;;;18.34;48.00
47726;BME280;33483;48.294;16.388;2023-04-25T11:01:35;98733.88;;;17.72;48.70
47726;BME280;33483;48.294;16.388;2023-04-25T11:04:02;98738.09;;;17.43;48.83
47726;BME280;33483;48.294;16.388;2023-04-25T11:09:12;98734.53;;;16.93;53.05
47726;BME280;33483;48.294;16.388;2023-04-25T11:11:40;98730.25;;;17.60;51.59
47726;BME280;33483;48.294;16.388;2023-04-25T11:14:07;98739.72;;;17.55;49.72
47726;BME280;33483;48.294;16.388;2023-04-25T11:16:35;98725.25;;;17.59;52.47
47726;BME280;33483;48.294;16.388;2023-04-25T11:19:03;98729.03;;;17.04;53.29
47726;BME280;33483;48.294;16.388;2023-04-25T11:21:30;98728.94;;;16.64;56.79
47726;BME280;33483;48.294;16.388;2023-04-25T11:23:58;98738.44;;;16.32;58.70
47726;BME280;33483;48.294;16.388;2023-04-25T11:26:26;98740.97;;;15.83;67.57
47726;BME280;33483;48.294;16.388;2023-04-25T11:28:56;98737.16;;;15.25;78.99
47726;BME280;33483;48.294;16.388;2023-04-25T11:31:24;98739.59;;;14.94;78.33
47726;BME280;33483;48.294;16.388;2023-04-25T11:33:53;98736.19;;;14.69;82.17
47726;BME280;33483;48.294;16.388;2023-04-25T11:36:22;98735.63;;;14.71;81.95
47726;BME280;33483;48.294;16.388;2023-04-25T11:38:51;98734.44;;;14.91;84.61
47726;BME280;33483;48.294;16.388;2023-04-25T11:41:21;98741.88;;;15.05;82.14
47726;BME280;33483;48.294;16.388;2023-04-25T11:43:49;98748.41;;;15.17;76.82
47726;BME280;33483;48.294;16.388;2023-04-25T11:46:19;98751.47;;;15.38;79.43
47726;BME280;33483;48.294;16.388;2023-04-25T11:48:47;98757.09;;;15.65;80.27
47726;BME280;33483;48.294;16.388;2023-04-25T11:51:15;98772.47;;;15.56;68.49
47726;BME280;33483;48.294;16.388;2023-04-25T11:53:42;98774.63;;;15.75;63.30
47726;BME280;33483;48.294;16.388;2023-04-25T11:56:11;98782.34;;;15.94;61.82
47726;BME280;33483;48.294;16.388;2023-04-25T11:58:57;98773.66;;;16.45;62.90
47726;BME280;33483;48.294;16.388;2023-04-25T12:01:28;98773.50;;;16.43;55.77
47726;BME280;33483;48.294;16.388;2023-04-25T12:04:14;98766.59;;;16.44;56.82
47726;BME280;33483;48.294;16.388;2023-04-25T12:06:43;98770.50;;;16.22;55.74
47726;BME280;33483;48.294;16.388;2023-04-25T12:09:11;98758.00;;;16.23;55.59
47726;BME280;33483;48.294;16.388;2023-04-25T12:11:40;98773.13;;;16.10;56.47
47726;BME280;33483;48.294;16.388;2023-04-25T12:14:07;98765.94;;;16.17;55.56
47726;BME280;33483;48.294;16.388;2023-04-25T12:16:42;98765.38;;;16.28;55.83
47726;BME280;33483;48.294;16.388;2023-04-25T12:19:09;98757.56;;;16.26;54.22
47726;BME280;33483;48.294;16.388;2023-04-25T12:21:39;98750.78;;;16.20;58.21
47726;BME280;33483;48.294;16.388;2023-04-25T12:24:23;98743.16;;;16.30;59.24
47726;BME280;33483;48.294;16.388;2023-04-25T12:27:02;98750.94;;;16.22;56.72
47726;BME280;33483;48.294;16.388;2023-04-25T12:29:30;98750.22;;;16.31;56.53
47726;BME280;33483;48.294;16.388;2023-04-25T12:32:14;98752.09;;;16.19;55.15
47726;BME280;33483;48.294;16.388;2023-04-25T12:34:40;98748.66;;;16.47;55.91
47726;BME280;33483;48.294;16.388;2023-04-25T12:37:08;98751.97;;;16.26;55.25
47726;BME280;33483;48.294;16.388;2023-04-25T12:39:35;98754.84;;;16.74;54.05
47726;BME280;33483;48.294;16.388;2023-04-25T12:42:02;98749.25;;;16.64;56.54
47726;BME280;33483;48.294;16.388;2023-04-25T12:44:33;98738.94;;;16.48;57.24
47726;BME280;33483;48.294;16.388;2023-04-25T12:47:03;98743.56;;;16.17;53.87
47726;BME280;33483;48.294;16.388;2023-04-25T12:49:30;98741.09;;;16.40;53.57
47726;BME280;33483;48.294;16.388;2023-04-25T12:51:58;98744.81;;;17.00;54.75
47726;BME280;33483;48.294;16.388;2023-04-25T12:54:25;98749.94;;;17.22;50.92
47726;BME280;33483;48.294;16.388;2023-04-25T12:56:53;98734.34;;;17.69;52.15
47726;BME280;33483;48.294;16.388;2023-04-25T12:59:21;98752.84;;;17.53;49.71
47726;BME280;33483;48.294;16.388;2023-04-25T13:01:49;98743.94;;;17.07;50.12
47726;BME280;33483;48.294;16.388;2023-04-25T13:04:16;98744.81;;;17.09;51.84
47726;BME280;33483;48.294;16.388;2023-04-25T13:06:46;98746.13;;;17.08;51.93
47726;BME280;33483;48.294;16.388;2023-04-25T13:09:12;98741.47;;;16.63;49.55
47726;BME280;33483;48.294;16.388;2023-04-25T13:11:40;98737.03;;;16.50;51.20
47726;BME280;33483;48.294;16.388;2023-04-25T13:14:08;98735.41;;;16.76;51.48
47726;BME280;33483;48.294;16.388;2023-04-25T13:16:35;98746.16;;;16.79;52.44
47726;BME280;33483;48.294;16.388;2023-04-25T13:19:02;98730.09;;;16.70;51.43
47726;BME280;33483;48.294;16.388;2023-04-25T13:21:30;98739.84;;;16.69;50.05
47726;BME280;33483;48.294;16.388;2023-04-25T13:23:58;98736.13;;;16.48;50.18
47726;BME280;33483;48.294;16.388;2023-04-25T13:26:26;98728.00;;;16.33;52.53
47726;BME280;33483;48.294;16.388;2023-04-25T13:28:53;98733.44;;;16.21;51.10
47726;BME280;33483;48.294;16.388;2023-04-25T13:31:22;98730.34;;;16.27;51.24
47726;BME280;33483;48.294;16.388;2023-04-25T13:33:49;98734.63;;;16.37;49.99